sensor_id;sensor_type;location;lat;lon;timestamp;pressure;altitude;pressure_sealevel;temperature;humidity
74578;BME280;63173;49.086;33.418;2023-02-13T00:02:13;101849.00;;;-4.89;75.55
74578;BME280;63173;49.086;33.418;2023-02-13T00:04:40;101861.94;;;-4.86;75.67
74578;BME280;63173;49.086;33.418;2023-02-13T00:07:07;101846.94;;;-4.95;75.51
74578;BME280;63173;49.086;33.418;2023-02-13T00:09:32;101854.28;;;-4.89;75.89
74578;BME280;63173;49.086;33.418;2023-02-13T00:11:57;101849.03;;;-4.99;75.37
74578;BME280;63173;49.086;33.418;2023-02-13T00:14:23;101844.13;;;-4.94;75.99
74578;BME280;63173;49.086;33.418;2023-02-13T00:16:48;101850.56;;;-4.96;75.93
74578;BME280;63173;49.086;33.418;2023-02-13T00:19:14;101847.78;;;-4.95;75.61
74578;BME280;63173;49.086;33.418;2023-02-13T00:21:39;101840.66;;;-4.94;76.06
74578;BME280;63173;49.086;33.418;2023-02-13T00:24:05;101836.06;;;-4.92;75.05
74578;BME280;63173;49.086;33.418;2023-02-13T00:26:30;101836.34;;;-4.95;76.04
74578;BME280;63173;49.086;33.418;2023-02-13T00:28:56;101838.53;;;-4.91;74.71
74578;BME280;63173;49.086;33.418;2023-02-13T00:31:21;101827.09;;;-4.91;75.59
74578;BME280;63173;49.086;33.418;2023-02-13T00:33:47;101816.59;;;-4.83;75.35
74578;BME280;63173;49.086;33.418;2023-02-13T00:36:18;101827.34;;;-4.85;75.22
74578;BME280;63173;49.086;33.418;2023-02-13T00:38:43;101823.19;;;-4.87;75.19
74578;BME280;63173;49.086;33.418;2023-02-13T00:41:09;101815.22;;;-4.87;75.19
74578;BME280;63173;49.086;33.418;2023-02-13T00:43:35;101823.03;;;-4.86;74.51
74578;BME280;63173;49.086;33.418;2023-02-13T00:46:01;101825.13;;;-4.89;74.69
74578;BME280;63173;49.086;33.418;2023-02-13T00:48:27;101826.59;;;-4.77;74.98
74578;BME280;63173;49.086;33.418;2023-02-13T00:50:53;101824.84;;;-4.68;73.86
74578;BME280;63173;49.086;33.418;2023-02-13T00:53:20;101820.63;;;-4.79;74.10
74578;BME280;63173;49.086;33.418;2023-02-13T00:55:46;101826.72;;;-4.79;74.92
74578;BME280;63173;49.086;33.418;2023-02-13T00:58:12;101830.69;;;-4.83;74.65
74578;BME280;63173;49.086;33.418;2023-02-13T01:00:39;101826.66;;;-4.87;74.05
74578;BME280;63173;49.086;33.418;2023-02-13T01:03:05;101833.47;;;-4.84;73.64
74578;BME280;63173;49.086;33.418;2023-02-13T01:05:31;101828.69;;;-4.98;74.45
74578;BME280;63173;49.086;33.418;2023-02-13T01:07:56;101838.53;;;-4.91;75.04
74578;BME280;63173;49.086;33.418;2023-02-13T01:10:21;101832.72;;;-4.94;74.13
74578;BME280;63173;49.086;33.418;2023-02-13T01:12:47;101832.47;;;-5.01;75.54
74578;BME280;63173;49.086;33.418;2023-02-13T01:15:13;101837.22;;;-5.04;75.24
74578;BME280;63173;49.086;33.418;2023-02-13T01:17:38;101833.22;;;-5.08;75.00
74578;BME280;63173;49.086;33.418;2023-02-13T01:20:05;101843.56;;;-5.15;74.93
74578;BME280;63173;49.086;33.418;2023-02-13T01:22:31;101841.50;;;-5.21;76.18
74578;BME280;63173;49.086;33.418;2023-02-13T01:24:56;101837.28;;;-5.41;76.51
74578;BME280;63173;49.086;33.418;2023-02-13T01:27:22;101837.38;;;-5.33;76.31
74578;BME280;63173;49.086;33.418;2023-02-13T01:29:47;101847.16;;;-5.43;75.64
74578;BME280;63173;49.086;33.418;2023-02-13T01:32:13;101849.72;;;-5.51;76.53
74578;BME280;63173;49.086;33.418;2023-02-13T01:34:38;101847.22;;;-5.52;77.20
74578;BME280;63173;49.086;33.418;2023-02-13T01:37:04;101851.53;;;-5.51;76.56
74578;BME280;63173;49.086;33.418;2023-02-13T01:39:29;101850.88;;;-5.63;77.65
74578;BME280;63173;49.086;33.418;2023-02-13T01:41:54;101846.97;;;-5.59;76.67
74578;BME280;63173;49.086;33.418;2023-02-13T01:44:52;101844.31;;;-5.59;76.79
74578;BME280;63173;49.086;33.418;2023-02-13T01:47:50;101846.81;;;-5.57;77.20
74578;BME280;63173;49.086;33.418;2023-02-13T01:50:42;101851.28;;;-5.58;77.31
74578;BME280;63173;49.086;33.418;2023-02-13T01:53:43;101845.72;;;-5.55;77.07
74578;BME280;63173;49.086;33.418;2023-02-13T01:56:28;101856.78;;;-5.42;77.28
74578;BME280;63173;49.086;33.418;2023-02-13T01:58:59;101854.84;;;-5.40;77.12
74578;BME280;63173;49.086;33.418;2023-02-13T02:01:26;101847.31;;;-5.44;76.42
74578;BME280;63173;49.086;33.418;2023-02-13T02:04:16;101843.41;;;-5.40;77.47
74578;BME280;63173;49.086;33.418;2023-02-13T02:06:54;101850.22;;;-5.38;76.74
74578;BME280;63173;49.086;33.418;2023-02-13T02:09:26;101836.53;;;-5.33;76.89
74578;BME280;63173;49.086;33.418;2023-02-13T02:12:05;101842.97;;;-5.36;77.43
74578;BME280;63173;49.086;33.418;2023-02-13T02:14:34;101841.25;;;-5.27;77.05
74578;BME280;63173;49.086;33.418;2023-02-13T02:16:59;101840.03;;;-5.33;76.05
74578;BME280;63173;49.086;33.418;2023-02-13T02:19:52;101834.50;;;-5.39;76.47
74578;BME280;63173;49.086;33.418;2023-02-13T02:22:42;101843.72;;;-5.43;77.02
74578;BME280;63173;49.086;33.418;2023-02-13T02:28:29;101838.66;;;-5.37;77.92
74578;BME280;63173;49.086;33.418;2023-02-13T02:33:29;101843.06;;;-5.28;77.61
74578;BME280;63173;49.086;33.418;2023-02-13T02:43:50;101867.00;;;-5.20;77.62
74578;BME280;63173;49.086;33.418;2023-02-13T02:46:35;101863.50;;;-5.20;77.78
74578;BME280;63173;49.086;33.418;2023-02-13T02:49:08;101870.72;;;-5.13;77.79
74578;BME280;63173;49.086;33.418;2023-02-13T02:52:36;101863.56;;;-5.03;78.63
74578;BME280;63173;49.086;33.418;2023-02-13T02:57:54;101862.25;;;-4.89;78.65
74578;BME280;63173;49.086;33.418;2023-02-13T03:00:43;101857.09;;;-4.91;79.75
74578;BME280;63173;49.086;33.418;2023-02-13T03:03:28;101854.97;;;-4.87;78.99
74578;BME280;63173;49.086;33.418;2023-02-13T03:06:26;101863.09;;;-4.89;79.67
74578;BME280;63173;49.086;33.418;2023-02-13T03:09:00;101868.38;;;-4.89;80.25
74578;BME280;63173;49.086;33.418;2023-02-13T03:11:48;101866.31;;;-4.95;79.92
74578;BME280;63173;49.086;33.418;2023-02-13T03:14:33;101863.03;;;-4.79;81.13
74578;BME280;63173;49.086;33.418;2023-02-13T03:16:59;101855.50;;;-4.84;80.85
74578;BME280;63173;49.086;33.418;2023-02-13T03:22:40;101845.09;;;-4.67;81.95
74578;BME280;63173;49.086;33.418;2023-02-13T03:34:11;101849.97;;;-4.72;83.01
74578;BME280;63173;49.086;33.418;2023-02-13T03:37:01;101841.06;;;-4.71;82.27
74578;BME280;63173;49.086;33.418;2023-02-13T03:45:29;101841.88;;;-4.71;82.78
74578;BME280;63173;49.086;33.418;2023-02-13T03:48:28;101835.88;;;-4.73;83.73
74578;BME280;63173;49.086;33.418;2023-02-13T03:51:18;101834.41;;;-4.75;83.70
74578;BME280;63173;49.086;33.418;2023-02-13T03:53:50;101831.19;;;-4.61;83.65
74578;BME280;63173;49.086;33.418;2023-02-13T03:56:19;101825.91;;;-4.61;83.57
74578;BME280;63173;49.086;33.418;2023-02-13T03:59:06;101827.94;;;-4.55;82.78
74578;BME280;63173;49.086;33.418;2023-02-13T04:01:44;101826.97;;;-4.54;83.27
74578;BME280;63173;49.086;33.418;2023-02-13T04:06:54;101820.50;;;-4.34;82.47
74578;BME280;63173;49.086;33.418;2023-02-13T04:09:24;101827.72;;;-4.27;82.95
74578;BME280;63173;49.086;33.418;2023-02-13T04:12:16;101829.75;;;-4.38;82.63
74578;BME280;63173;49.086;33.418;2023-02-13T04:14:56;101827.72;;;-4.44;83.90
74578;BME280;63173;49.086;33.418;2023-02-13T04:17:27;101830.38;;;-4.44;84.05
74578;BME280;63173;49.086;33.418;2023-02-13T04:19:54;101833.50;;;-4.49;83.17
74578;BME280;63173;49.086;33.418;2023-02-13T04:22:20;101831.88;;;-4.42;83.81
74578;BME280;63173;49.086;33.418;2023-02-13T04:24:45;101825.53;;;-4.49;83.59
74578;BME280;63173;49.086;33.418;2023-02-13T04:27:15;101832.22;;;-4.45;84.05
74578;BME280;63173;49.086;33.418;2023-02-13T04:29:41;101821.72;;;-4.46;84.43
74578;BME280;63173;49.086;33.418;2023-02-13T04:32:09;101824.78;;;-4.41;84.12
74578;BME280;63173;49.086;33.418;2023-02-13T04:34:35;101815.13;;;-4.42;84.48
74578;BME280;63173;49.086;33.418;2023-02-13T04:37:00;101818.03;;;-4.36;84.42
74578;BME280;63173;49.086;33.418;2023-02-13T04:39:25;101815.66;;;-4.39;84.49
74578;BME280;63173;49.086;33.418;2023-02-13T04:41:51;101796.31;;;-4.31;84.49
74578;BME280;63173;49.086;33.418;2023-02-13T04:44:16;101806.03;;;-4.22;84.16
74578;BME280;63173;49.086;33.418;2023-02-13T04:46:41;101805.03;;;-4.21;83.82
74578;BME280;63173;49.086;33.418;2023-02-13T04:49:08;101807.53;;;-4.20;84.24
74578;BME280;63173;49.086;33.418;2023-02-13T04:51:34;101812.38;;;-4.15;83.93
74578;BME280;63173;49.086;33.418;2023-02-13T04:53:59;101819.97;;;-4.20;84.00
74578;BME280;63173;49.086;33.418;2023-02-13T04:56:25;101817.94;;;-4.26;84.54
74578;BME280;63173;49.086;33.418;2023-02-13T04:58:50;101814.75;;;-4.30;84.72
74578;BME280;63173;49.086;33.418;2023-02-13T05:01:16;101821.28;;;-4.24;84.97
74578;BME280;63173;49.086;33.418;2023-02-13T05:03:42;101822.47;;;-4.19;84.74
74578;BME280;63173;49.086;33.418;2023-02-13T05:06:07;101832.25;;;-4.19;84.94
74578;BME280;63173;49.086;33.418;2023-02-13T05:08:33;101831.41;;;-4.20;84.62
74578;BME280;63173;49.086;33.418;2023-02-13T05:10:59;101836.16;;;-4.06;84.29
74578;BME280;63173;49.086;33.418;2023-02-13T05:13:24;101833.59;;;-4.15;84.21
74578;BME280;63173;49.086;33.418;2023-02-13T05:15:50;101840.19;;;-4.19;84.56
74578;BME280;63173;49.086;33.418;2023-02-13T05:18:17;101844.75;;;-4.12;84.09
74578;BME280;63173;49.086;33.418;2023-02-13T05:20:43;101853.03;;;-4.15;84.24
74578;BME280;63173;49.086;33.418;2023-02-13T05:23:13;101853.16;;;-4.16;84.18
74578;BME280;63173;49.086;33.418;2023-02-13T05:25:48;101859.22;;;-4.06;83.74
74578;BME280;63173;49.086;33.418;2023-02-13T05:28:13;101853.06;;;-4.07;83.82
74578;BME280;63173;49.086;33.418;2023-02-13T05:30:58;101854.91;;;-4.07;83.50
74578;BME280;63173;49.086;33.418;2023-02-13T05:33:23;101863.06;;;-4.01;83.78
74578;BME280;63173;49.086;33.418;2023-02-13T05:35:49;101861.69;;;-4.05;83.38
74578;BME280;63173;49.086;33.418;2023-02-13T05:38:15;101862.09;;;-4.00;83.03
74578;BME280;63173;49.086;33.418;2023-02-13T05:40:40;101863.66;;;-3.89;83.08
74578;BME280;63173;49.086;33.418;2023-02-13T05:43:05;101866.41;;;-3.99;83.10
74578;BME280;63173;49.086;33.418;2023-02-13T05:45:31;101865.09;;;-3.95;82.74
74578;BME280;63173;49.086;33.418;2023-02-13T05:47:56;101858.94;;;-3.95;82.58
74578;BME280;63173;49.086;33.418;2023-02-13T05:50:22;101865.56;;;-3.99;82.89
74578;BME280;63173;49.086;33.418;2023-02-13T05:52:47;101872.06;;;-3.94;82.74
74578;BME280;63173;49.086;33.418;2023-02-13T05:55:12;101863.44;;;-3.96;83.12
74578;BME280;63173;49.086;33.418;2023-02-13T05:57:38;101864.25;;;-3.95;82.50
74578;BME280;63173;49.086;33.418;2023-02-13T06:00:04;101853.47;;;-3.94;82.17
74578;BME280;63173;49.086;33.418;2023-02-13T06:02:30;101858.66;;;-3.92;81.82
74578;BME280;63173;49.086;33.418;2023-02-13T06:04:56;101855.41;;;-3.78;81.82
74578;BME280;63173;49.086;33.418;2023-02-13T06:07:21;101854.44;;;-3.77;81.49
74578;BME280;63173;49.086;33.418;2023-02-13T06:09:47;101849.25;;;-3.87;80.86
74578;BME280;63173;49.086;33.418;2023-02-13T06:12:12;101836.69;;;-3.76;80.61
74578;BME280;63173;49.086;33.418;2023-02-13T06:14:37;101833.72;;;-3.73;80.62
74578;BME280;63173;49.086;33.418;2023-02-13T06:17:03;101829.25;;;-3.73;80.45
74578;BME280;63173;49.086;33.418;2023-02-13T06:19:28;101837.53;;;-3.76;80.06
74578;BME280;63173;49.086;33.418;2023-02-13T06:21:54;101825.75;;;-3.73;79.62
74578;BME280;63173;49.086;33.418;2023-02-13T06:24:19;101831.00;;;-3.56;79.77
74578;BME280;63173;49.086;33.418;2023-02-13T06:26:45;101837.00;;;-3.54;79.26
74578;BME280;63173;49.086;33.418;2023-02-13T06:29:10;101836.72;;;-3.43;79.34
74578;BME280;63173;49.086;33.418;2023-02-13T06:31:37;101846.56;;;-3.35;78.62
74578;BME280;63173;49.086;33.418;2023-02-13T06:34:02;101838.13;;;-3.23;78.71
74578;BME280;63173;49.086;33.418;2023-02-13T06:36:28;101839.34;;;-3.09;78.10
74578;BME280;63173;49.086;33.418;2023-02-13T06:38:53;101841.13;;;-3.18;78.12
74578;BME280;63173;49.086;33.418;2023-02-13T06:41:19;101846.78;;;-2.71;77.74
74578;BME280;63173;49.086;33.418;2023-02-13T06:43:44;101842.66;;;-2.57;76.95
74578;BME280;63173;49.086;33.418;2023-02-13T06:46:10;101831.34;;;-2.43;76.15
74578;BME280;63173;49.086;33.418;2023-02-13T06:48:35;101836.34;;;-2.48;75.68
74578;BME280;63173;49.086;33.418;2023-02-13T06:51:01;101841.16;;;-2.44;75.62
74578;BME280;63173;49.086;33.418;2023-02-13T06:53:28;101845.50;;;-2.43;75.22
74578;BME280;63173;49.086;33.418;2023-02-13T06:55:54;101838.00;;;-2.47;75.91
74578;BME280;63173;49.086;33.418;2023-02-13T06:58:21;101839.00;;;-2.48;75.64
74578;BME280;63173;49.086;33.418;2023-02-13T07:00:47;101833.03;;;-2.42;75.63
74578;BME280;63173;49.086;33.418;2023-02-13T07:03:13;101831.84;;;-2.32;75.31
74578;BME280;63173;49.086;33.418;2023-02-13T07:05:40;101825.22;;;-2.20;75.34
74578;BME280;63173;49.086;33.418;2023-02-13T07:08:06;101839.00;;;-2.08;74.27
74578;BME280;63173;49.086;33.418;2023-02-13T07:10:32;101847.66;;;-2.14;74.41
74578;BME280;63173;49.086;33.418;2023-02-13T07:12:58;101840.00;;;-2.01;74.38
74578;BME280;63173;49.086;33.418;2023-02-13T07:15:23;101839.16;;;-2.02;73.92
74578;BME280;63173;49.086;33.418;2023-02-13T07:17:54;101858.13;;;-1.97;73.48
74578;BME280;63173;49.086;33.418;2023-02-13T07:20:20;101847.66;;;-2.06;73.53
74578;BME280;63173;49.086;33.418;2023-02-13T07:22:45;101855.28;;;-2.19;73.52
74578;BME280;63173;49.086;33.418;2023-02-13T07:25:11;101838.66;;;-2.05;74.06
74578;BME280;63173;49.086;33.418;2023-02-13T07:27:36;101837.00;;;-2.06;74.20
74578;BME280;63173;49.086;33.418;2023-02-13T07:30:02;101831.63;;;-1.74;73.33
74578;BME280;63173;49.086;33.418;2023-02-13T07:32:28;101832.47;;;-1.73;72.96
74578;BME280;63173;49.086;33.418;2023-02-13T07:34:53;101836.31;;;-1.84;73.23
74578;BME280;63173;49.086;33.418;2023-02-13T07:37:18;101823.81;;;-1.75;72.94
74578;BME280;63173;49.086;33.418;2023-02-13T07:39:44;101813.34;;;-1.77;73.30
74578;BME280;63173;49.086;33.418;2023-02-13T07:42:09;101818.19;;;-1.97;73.04
74578;BME280;63173;49.086;33.418;2023-02-13T07:44:35;101812.66;;;-1.79;73.76
74578;BME280;63173;49.086;33.418;2023-02-13T07:47:00;101808.59;;;-1.59;72.33
74578;BME280;63173;49.086;33.418;2023-02-13T07:49:25;101788.81;;;-1.64;72.21
74578;BME280;63173;49.086;33.418;2023-02-13T07:51:51;101793.34;;;-1.73;72.14
74578;BME280;63173;49.086;33.418;2023-02-13T07:54:16;101783.63;;;-1.50;71.94
74578;BME280;63173;49.086;33.418;2023-02-13T07:56:42;101784.13;;;-1.54;72.53
74578;BME280;63173;49.086;33.418;2023-02-13T07:59:07;101796.97;;;-1.58;72.13
74578;BME280;63173;49.086;33.418;2023-02-13T08:01:33;101794.31;;;-1.58;72.43
74578;BME280;63173;49.086;33.418;2023-02-13T08:03:58;101773.84;;;-1.65;72.70
74578;BME280;63173;49.086;33.418;2023-02-13T08:06:23;101783.47;;;-1.64;72.64
74578;BME280;63173;49.086;33.418;2023-02-13T08:08:49;101790.69;;;-1.81;73.31
74578;BME280;63173;49.086;33.418;2023-02-13T08:11:34;101781.25;;;-1.45;71.79
74578;BME280;63173;49.086;33.418;2023-02-13T08:14:22;101775.53;;;-1.34;71.83
74578;BME280;63173;49.086;33.418;2023-02-13T08:16:49;101785.56;;;-1.36;70.88
74578;BME280;63173;49.086;33.418;2023-02-13T08:19:14;101780.56;;;-1.31;71.57
74578;BME280;63173;49.086;33.418;2023-02-13T08:21:40;101770.66;;;-1.22;70.33
74578;BME280;63173;49.086;33.418;2023-02-13T08:24:06;101768.59;;;-0.81;68.99
74578;BME280;63173;49.086;33.418;2023-02-13T08:26:32;101769.13;;;-0.86;69.83
74578;BME280;63173;49.086;33.418;2023-02-13T08:28:57;101750.81;;;-0.89;70.06
74578;BME280;63173;49.086;33.418;2023-02-13T08:31:23;101761.63;;;-0.90;69.32
74578;BME280;63173;49.086;33.418;2023-02-13T08:33:48;101748.78;;;-0.87;70.10
74578;BME280;63173;49.086;33.418;2023-02-13T08:36:14;101742.97;;;-0.68;69.27
74578;BME280;63173;49.086;33.418;2023-02-13T08:38:39;101747.91;;;-0.57;68.78
74578;BME280;63173;49.086;33.418;2023-02-13T08:41:05;101750.28;;;-0.84;69.12
74578;BME280;63173;49.086;33.418;2023-02-13T08:43:30;101742.16;;;-0.68;68.92
74578;BME280;63173;49.086;33.418;2023-02-13T08:45:59;101747.47;;;-0.46;68.29
74578;BME280;63173;49.086;33.418;2023-02-13T08:48:26;101731.41;;;-0.60;69.10
74578;BME280;63173;49.086;33.418;2023-02-13T08:50:51;101730.41;;;-0.22;67.66
74578;BME280;63173;49.086;33.418;2023-02-13T08:53:17;101723.06;;;0.09;66.37
74578;BME280;63173;49.086;33.418;2023-02-13T08:55:42;101733.13;;;-0.30;67.54
74578;BME280;63173;49.086;33.418;2023-02-13T08:58:15;101721.19;;;-0.20;68.08
74578;BME280;63173;49.086;33.418;2023-02-13T09:00:40;101725.56;;;-0.04;68.36
74578;BME280;63173;49.086;33.418;2023-02-13T09:03:06;101709.59;;;0.03;68.09
74578;BME280;63173;49.086;33.418;2023-02-13T09:05:31;101710.81;;;0.15;67.40
74578;BME280;63173;49.086;33.418;2023-02-13T09:08:00;101703.41;;;0.46;67.31
74578;BME280;63173;49.086;33.418;2023-02-13T09:10:27;101703.81;;;0.28;66.97
74578;BME280;63173;49.086;33.418;2023-02-13T09:12:53;101711.03;;;0.63;64.63
74578;BME280;63173;49.086;33.418;2023-02-13T09:15:19;101707.78;;;1.04;64.98
74578;BME280;63173;49.086;33.418;2023-02-13T09:17:44;101703.59;;;0.44;64.29
74578;BME280;63173;49.086;33.418;2023-02-13T09:20:10;101682.06;;;0.17;65.06
74578;BME280;63173;49.086;33.418;2023-02-13T09:22:38;101681.22;;;0.45;66.80
74578;BME280;63173;49.086;33.418;2023-02-13T09:25:04;101689.38;;;0.58;66.52
74578;BME280;63173;49.086;33.418;2023-02-13T09:27:31;101688.41;;;0.80;65.37
74578;BME280;63173;49.086;33.418;2023-02-13T09:29:57;101682.25;;;0.65;64.35
74578;BME280;63173;49.086;33.418;2023-02-13T09:32:23;101674.00;;;0.81;64.81
74578;BME280;63173;49.086;33.418;2023-02-13T09:34:48;101675.38;;;0.56;65.01
74578;BME280;63173;49.086;33.418;2023-02-13T09:37:14;101672.59;;;0.64;64.82
74578;BME280;63173;49.086;33.418;2023-02-13T09:39:39;101671.66;;;0.72;65.32
74578;BME280;63173;49.086;33.418;2023-02-13T09:42:14;101667.25;;;0.85;64.00
74578;BME280;63173;49.086;33.418;2023-02-13T09:44:43;101664.78;;;0.84;64.45
74578;BME280;63173;49.086;33.418;2023-02-13T09:49:47;101667.06;;;1.29;63.33
74578;BME280;63173;49.086;33.418;2023-02-13T09:52:15;101665.09;;;0.95;63.21
74578;BME280;63173;49.086;33.418;2023-02-13T09:54:40;101654.41;;;0.95;64.30
74578;BME280;63173;49.086;33.418;2023-02-13T09:57:32;101655.88;;;1.19;63.32
74578;BME280;63173;49.086;33.418;2023-02-13T10:00:28;101644.06;;;1.14;63.77
74578;BME280;63173;49.086;33.418;2023-02-13T10:16:46;101627.97;;;1.62;63.75
74578;BME280;63173;49.086;33.418;2023-02-13T10:22:11;101621.47;;;1.78;62.93
74578;BME280;63173;49.086;33.418;2023-02-13T10:29:47;101627.09;;;1.55;63.47
74578;BME280;63173;49.086;33.418;2023-02-13T10:35:26;101604.31;;;1.66;63.01
74578;BME280;63173;49.086;33.418;2023-02-13T10:37:55;101601.66;;;1.72;63.13
74578;BME280;63173;49.086;33.418;2023-02-13T10:40:27;101591.34;;;1.69;63.28
74578;BME280;63173;49.086;33.418;2023-02-13T10:43:20;101593.16;;;1.97;62.99
74578;BME280;63173;49.086;33.418;2023-02-13T10:54:48;101585.25;;;2.42;60.72
74578;BME280;63173;49.086;33.418;2023-02-13T11:03:19;101568.34;;;2.48;60.70
74578;BME280;63173;49.086;33.418;2023-02-13T11:05:46;101562.78;;;2.43;60.01
74578;BME280;63173;49.086;33.418;2023-02-13T11:08:21;101553.75;;;2.57;59.84
74578;BME280;63173;49.086;33.418;2023-02-13T11:10:48;101550.63;;;2.67;59.83
74578;BME280;63173;49.086;33.418;2023-02-13T11:13:22;101548.00;;;2.80;59.23
74578;BME280;63173;49.086;33.418;2023-02-13T11:16:03;101530.22;;;3.18;57.71
74578;BME280;63173;49.086;33.418;2023-02-13T11:18:32;101544.38;;;3.64;57.37
74578;BME280;63173;49.086;33.418;2023-02-13T11:21:06;101530.78;;;3.46;56.36
74578;BME280;63173;49.086;33.418;2023-02-13T11:23:37;101526.94;;;3.10;57.84
74578;BME280;63173;49.086;33.418;2023-02-13T11:26:09;101526.13;;;2.90;58.73
74578;BME280;63173;49.086;33.418;2023-02-13T11:28:57;101508.97;;;2.77;60.57
74578;BME280;63173;49.086;33.418;2023-02-13T11:33:53;101506.91;;;2.53;60.47
74578;BME280;63173;49.086;33.418;2023-02-13T11:36:35;101498.03;;;2.53;59.96
74578;BME280;63173;49.086;33.418;2023-02-13T11:39:21;101500.69;;;2.40;61.93
74578;BME280;63173;49.086;33.418;2023-02-13T11:41:48;101492.06;;;2.57;61.79
74578;BME280;63173;49.086;33.418;2023-02-13T11:46:48;101489.53;;;2.30;62.57
74578;BME280;63173;49.086;33.418;2023-02-13T11:49:22;101487.66;;;2.17;62.78
74578;BME280;63173;49.086;33.418;2023-02-13T11:51:49;101485.19;;;2.16;63.55
74578;BME280;63173;49.086;33.418;2023-02-13T11:54:37;101481.47;;;2.17;63.69
74578;BME280;63173;49.086;33.418;2023-02-13T11:57:22;101468.28;;;2.15;63.31
74578;BME280;63173;49.086;33.418;2023-02-13T11:59:51;101459.63;;;2.26;63.08
74578;BME280;63173;49.086;33.418;2023-02-13T12:02:25;101449.94;;;2.32;63.67
74578;BME280;63173;49.086;33.418;2023-02-13T12:05:38;101447.28;;;2.25;63.96
74578;BME280;63173;49.086;33.418;2023-02-13T12:07:38;101450.13;;;2.24;63.70
74578;BME280;63173;49.086;33.418;2023-02-13T12:10:18;101442.09;;;2.17;64.07
74578;BME280;63173;49.086;33.418;2023-02-13T12:15:23;101435.09;;;2.29;64.29
74578;BME280;63173;49.086;33.418;2023-02-13T12:20:40;101437.59;;;2.31;64.67
74578;BME280;63173;49.086;33.418;2023-02-13T12:25:54;101431.38;;;2.24;64.43
74578;BME280;63173;49.086;33.418;2023-02-13T12:47:18;101404.78;;;2.35;65.72
74578;BME280;63173;49.086;33.418;2023-02-13T12:52:51;101420.06;;;2.28;66.84
74578;BME280;63173;49.086;33.418;2023-02-13T12:55:31;101411.19;;;2.21;67.14
74578;BME280;63173;49.086;33.418;2023-02-13T13:01:15;101413.47;;;2.31;67.04
74578;BME280;63173;49.086;33.418;2023-02-13T13:07:10;101416.53;;;2.21;66.91
74578;BME280;63173;49.086;33.418;2023-02-13T13:15:28;101409.13;;;2.30;67.37
74578;BME280;63173;49.086;33.418;2023-02-13T13:18:13;101410.56;;;2.19;67.83
74578;BME280;63173;49.086;33.418;2023-02-13T13:28:22;101400.66;;;2.13;67.26
74578;BME280;63173;49.086;33.418;2023-02-13T13:30:48;101398.41;;;2.23;67.59
74578;BME280;63173;49.086;33.418;2023-02-13T13:33:22;101379.84;;;2.28;67.27
74578;BME280;63173;49.086;33.418;2023-02-13T13:41:14;101382.53;;;2.15;68.30
74578;BME280;63173;49.086;33.418;2023-02-13T13:54:49;101368.28;;;2.15;68.00
74578;BME280;63173;49.086;33.418;2023-02-13T13:57:27;101366.00;;;2.05;68.28
74578;BME280;63173;49.086;33.418;2023-02-13T14:03:43;101356.94;;;2.13;68.36
74578;BME280;63173;49.086;33.418;2023-02-13T14:05:57;101347.88;;;2.07;67.79
74578;BME280;63173;49.086;33.418;2023-02-13T14:11:05;101350.34;;;1.96;68.76
74578;BME280;63173;49.086;33.418;2023-02-13T14:13:36;101337.78;;;1.96;69.38
74578;BME280;63173;49.086;33.418;2023-02-13T14:16:04;101340.03;;;1.99;69.26
74578;BME280;63173;49.086;33.418;2023-02-13T14:18:30;101344.34;;;1.93;68.97
74578;BME280;63173;49.086;33.418;2023-02-13T14:20:59;101339.63;;;1.96;69.27
74578;BME280;63173;49.086;33.418;2023-02-13T14:23:32;101342.72;;;1.92;69.68
74578;BME280;63173;49.086;33.418;2023-02-13T14:28:55;101342.09;;;1.90;69.98
74578;BME280;63173;49.086;33.418;2023-02-13T14:31:32;101338.19;;;1.93;70.02
74578;BME280;63173;49.086;33.418;2023-02-13T14:34:02;101347.66;;;1.82;70.38
74578;BME280;63173;49.086;33.418;2023-02-13T14:36:31;101351.16;;;1.89;70.43
74578;BME280;63173;49.086;33.418;2023-02-13T14:39:04;101343.56;;;1.93;70.16
74578;BME280;63173;49.086;33.418;2023-02-13T14:44:18;101342.31;;;1.89;70.79
74578;BME280;63173;49.086;33.418;2023-02-13T14:46:44;101341.25;;;1.90;71.70
74578;BME280;63173;49.086;33.418;2023-02-13T14:52:01;101339.63;;;1.76;72.23
74578;BME280;63173;49.086;33.418;2023-02-13T14:54:28;101346.63;;;1.77;72.07
74578;BME280;63173;49.086;33.418;2023-02-13T14:57:04;101344.75;;;1.77;72.02
74578;BME280;63173;49.086;33.418;2023-02-13T14:59:34;101347.03;;;1.74;72.70
74578;BME280;63173;49.086;33.418;2023-02-13T15:02:14;101344.16;;;1.75;73.29
74578;BME280;63173;49.086;33.418;2023-02-13T15:04:46;101346.81;;;1.82;73.32
74578;BME280;63173;49.086;33.418;2023-02-13T15:07:22;101349.50;;;1.82;72.94
74578;BME280;63173;49.086;33.418;2023-02-13T15:10:01;101348.25;;;1.71;73.95
74578;BME280;63173;49.086;33.418;2023-02-13T15:12:35;101346.81;;;1.75;74.14
74578;BME280;63173;49.086;33.418;2023-02-13T15:15:02;101354.84;;;1.75;74.48
74578;BME280;63173;49.086;33.418;2023-02-13T15:17:41;101346.63;;;1.77;74.68
74578;BME280;63173;49.086;33.418;2023-02-13T15:20:29;101343.09;;;1.76;75.30
74578;BME280;63173;49.086;33.418;2023-02-13T15:22:57;101340.44;;;1.70;76.03
74578;BME280;63173;49.086;33.418;2023-02-13T15:25:35;101342.28;;;1.69;76.72
74578;BME280;63173;49.086;33.418;2023-02-13T15:28:03;101333.19;;;1.64;77.15
74578;BME280;63173;49.086;33.418;2023-02-13T15:30:31;101326.63;;;1.66;77.24
74578;BME280;63173;49.086;33.418;2023-02-13T15:33:23;101339.56;;;1.56;78.07
74578;BME280;63173;49.086;33.418;2023-02-13T15:36:12;101329.69;;;1.63;78.29
74578;BME280;63173;49.086;33.418;2023-02-13T15:38:40;101319.59;;;1.59;78.45
74578;BME280;63173;49.086;33.418;2023-02-13T15:41:11;101326.19;;;1.63;78.63
74578;BME280;63173;49.086;33.418;2023-02-13T15:43:41;101339.16;;;1.53;79.94
74578;BME280;63173;49.086;33.418;2023-02-13T15:46:19;101329.47;;;1.45;79.85